sensor_id;sensor_type;location;lat;lon;timestamp;P1;durP1;ratioP1;P2;durP2;ratioP2
47403;SDS011;33157;51.508;4.288;2022-08-01T00:03:08;21.88;;;11.40;;
47403;SDS011;33157;51.508;4.288;2022-08-01T00:08:08;20.90;;;10.50;;
47403;SDS011;33157;51.508;4.288;2022-08-01T00:13:09;18.85;;;9.40;;
47403;SDS011;33157;51.508;4.288;2022-08-01T00:18:10;14.93;;;7.68;;
47403;SDS011;33157;51.508;4.288;2022-08-01T00:23:10;12.50;;;7.32;;
47403;SDS011;33157;51.508;4.288;2022-08-01T00:28:10;12.88;;;6.97;;
47403;SDS011;33157;51.508;4.288;2022-08-01T00:33:11;11.60;;;6.93;;
47403;SDS011;33157;51.508;4.288;2022-08-01T00:38:11;13.90;;;6.97;;
47403;SDS011;33157;51.508;4.288;2022-08-01T00:43:12;12.32;;;7.65;;
47403;SDS011;33157;51.508;4.288;2022-08-01T00:48:12;11.32;;;7.63;;
47403;SDS011;33157;51.508;4.288;2022-08-01T00:53:13;10.00;;;5.70;;
47403;SDS011;33157;51.508;4.288;2022-08-01T00:58:14;9.18;;;5.25;;
47403;SDS011;33157;51.508;4.288;2022-08-01T01:03:14;8.13;;;4.70;;
47403;SDS011;33157;51.508;4.288;2022-08-01T01:08:16;8.70;;;4.78;;
47403;SDS011;33157;51.508;4.288;2022-08-01T01:13:33;7.22;;;4.63;;
47403;SDS011;33157;51.508;4.288;2022-08-01T01:18:43;8.00;;;5.10;;
47403;SDS011;33157;51.508;4.288;2022-08-01T01:23:50;6.80;;;4.32;;
47403;SDS011;33157;51.508;4.288;2022-08-01T01:34:31;10.32;;;4.40;;
47403;SDS011;33157;51.508;4.288;2022-08-01T01:39:35;7.82;;;4.30;;
47403;SDS011;33157;51.508;4.288;2022-08-01T01:44:37;9.68;;;3.85;;
47403;SDS011;33157;51.508;4.288;2022-08-01T01:49:38;8.73;;;4.80;;
47403;SDS011;33157;51.508;4.288;2022-08-01T01:54:40;7.75;;;4.00;;
47403;SDS011;33157;51.508;4.288;2022-08-01T01:59:45;6.88;;;4.00;;
47403;SDS011;33157;51.508;4.288;2022-08-01T02:04:46;5.47;;;3.78;;
47403;SDS011;33157;51.508;4.288;2022-08-01T02:09:48;7.43;;;4.70;;
47403;SDS011;33157;51.508;4.288;2022-08-01T02:14:49;7.68;;;4.25;;
47403;SDS011;33157;51.508;4.288;2022-08-01T02:19:50;11.07;;;4.63;;
47403;SDS011;33157;51.508;4.288;2022-08-01T02:29:57;11.88;;;4.22;;
47403;SDS011;33157;51.508;4.288;2022-08-01T02:35:00;9.90;;;3.85;;
47403;SDS011;33157;51.508;4.288;2022-08-01T02:40:02;6.30;;;4.05;;
47403;SDS011;33157;51.508;4.288;2022-08-01T02:45:04;10.80;;;4.57;;
47403;SDS011;33157;51.508;4.288;2022-08-01T02:50:06;10.00;;;4.43;;
47403;SDS011;33157;51.508;4.288;2022-08-01T02:55:08;7.82;;;4.10;;
47403;SDS011;33157;51.508;4.288;2022-08-01T03:00:09;8.68;;;4.57;;
47403;SDS011;33157;51.508;4.288;2022-08-01T03:05:11;8.82;;;4.72;;
47403;SDS011;33157;51.508;4.288;2022-08-01T03:10:12;8.77;;;4.78;;
47403;SDS011;33157;51.508;4.288;2022-08-01T03:15:13;10.85;;;4.97;;
47403;SDS011;33157;51.508;4.288;2022-08-01T03:20:15;8.68;;;4.63;;
47403;SDS011;33157;51.508;4.288;2022-08-01T03:25:17;10.10;;;5.60;;
47403;SDS011;33157;51.508;4.288;2022-08-01T03:30:18;11.63;;;5.10;;
47403;SDS011;33157;51.508;4.288;2022-08-01T03:35:18;10.13;;;5.78;;
47403;SDS011;33157;51.508;4.288;2022-08-01T03:45:21;9.03;;;5.13;;
47403;SDS011;33157;51.508;4.288;2022-08-01T03:50:22;9.40;;;6.20;;
47403;SDS011;33157;51.508;4.288;2022-08-01T03:55:25;11.70;;;5.95;;
47403;SDS011;33157;51.508;4.288;2022-08-01T04:00:25;9.98;;;6.07;;
47403;SDS011;33157;51.508;4.288;2022-08-01T04:05:26;8.45;;;6.35;;
47403;SDS011;33157;51.508;4.288;2022-08-01T04:10:27;9.27;;;5.95;;
47403;SDS011;33157;51.508;4.288;2022-08-01T04:15:27;9.20;;;5.47;;
47403;SDS011;33157;51.508;4.288;2022-08-01T04:20:30;8.60;;;5.25;;
47403;SDS011;33157;51.508;4.288;2022-08-01T04:25:34;9.38;;;5.45;;
47403;SDS011;33157;51.508;4.288;2022-08-01T04:30:37;10.35;;;4.75;;
47403;SDS011;33157;51.508;4.288;2022-08-01T04:35:39;9.48;;;4.80;;
47403;SDS011;33157;51.508;4.288;2022-08-01T04:40:41;6.85;;;4.07;;
47403;SDS011;33157;51.508;4.288;2022-08-01T04:45:43;6.17;;;3.40;;
47403;SDS011;33157;51.508;4.288;2022-08-01T04:50:43;5.90;;;2.58;;
47403;SDS011;33157;51.508;4.288;2022-08-01T04:55:44;4.32;;;2.00;;
47403;SDS011;33157;51.508;4.288;2022-08-01T05:00:48;4.90;;;1.98;;
47403;SDS011;33157;51.508;4.288;2022-08-01T05:05:49;4.40;;;1.85;;
47403;SDS011;33157;51.508;4.288;2022-08-01T05:10:49;3.65;;;1.73;;
47403;SDS011;33157;51.508;4.288;2022-08-01T05:15:50;2.55;;;1.58;;
47403;SDS011;33157;51.508;4.288;2022-08-01T05:20:50;4.95;;;1.48;;
47403;SDS011;33157;51.508;4.288;2022-08-01T05:25:51;3.22;;;1.58;;
47403;SDS011;33157;51.508;4.288;2022-08-01T05:30:52;5.90;;;1.50;;
47403;SDS011;33157;51.508;4.288;2022-08-01T05:35:54;3.63;;;2.10;;
47403;SDS011;33157;51.508;4.288;2022-08-01T05:40:55;5.85;;;2.00;;
47403;SDS011;33157;51.508;4.288;2022-08-01T05:45:55;3.05;;;1.85;;
47403;SDS011;33157;51.508;4.288;2022-08-01T05:50:56;4.28;;;1.40;;
47403;SDS011;33157;51.508;4.288;2022-08-01T05:55:56;4.22;;;1.30;;
47403;SDS011;33157;51.508;4.288;2022-08-01T06:00:57;3.70;;;1.60;;
47403;SDS011;33157;51.508;4.288;2022-08-01T06:05:58;6.00;;;1.52;;
47403;SDS011;33157;51.508;4.288;2022-08-01T06:10:59;3.33;;;1.40;;
47403;SDS011;33157;51.508;4.288;2022-08-01T06:15:59;5.55;;;1.60;;
47403;SDS011;33157;51.508;4.288;2022-08-01T06:21:00;4.82;;;1.45;;
47403;SDS011;33157;51.508;4.288;2022-08-01T06:26:00;3.80;;;1.13;;
47403;SDS011;33157;51.508;4.288;2022-08-01T06:31:01;6.00;;;1.50;;
47403;SDS011;33157;51.508;4.288;2022-08-01T06:36:01;7.45;;;2.10;;
47403;SDS011;33157;51.508;4.288;2022-08-01T06:41:02;8.75;;;2.03;;
47403;SDS011;33157;51.508;4.288;2022-08-01T06:46:02;8.63;;;2.58;;
47403;SDS011;33157;51.508;4.288;2022-08-01T06:51:03;9.75;;;2.22;;
47403;SDS011;33157;51.508;4.288;2022-08-01T06:56:09;6.90;;;2.15;;
47403;SDS011;33157;51.508;4.288;2022-08-01T07:01:09;9.07;;;2.85;;
47403;SDS011;33157;51.508;4.288;2022-08-01T07:06:13;9.98;;;2.72;;
47403;SDS011;33157;51.508;4.288;2022-08-01T07:11:15;11.77;;;2.70;;
47403;SDS011;33157;51.508;4.288;2022-08-01T07:16:15;6.53;;;2.95;;
47403;SDS011;33157;51.508;4.288;2022-08-01T07:21:16;7.15;;;2.20;;
47403;SDS011;33157;51.508;4.288;2022-08-01T07:26:17;6.20;;;2.63;;
47403;SDS011;33157;51.508;4.288;2022-08-01T07:31:17;5.45;;;1.90;;
47403;SDS011;33157;51.508;4.288;2022-08-01T07:36:18;6.97;;;2.33;;
47403;SDS011;33157;51.508;4.288;2022-08-01T07:41:18;6.30;;;1.80;;
47403;SDS011;33157;51.508;4.288;2022-08-01T07:46:19;7.38;;;2.10;;
47403;SDS011;33157;51.508;4.288;2022-08-01T07:51:19;8.68;;;2.63;;
47403;SDS011;33157;51.508;4.288;2022-08-01T07:56:20;9.20;;;1.98;;
47403;SDS011;33157;51.508;4.288;2022-08-01T08:01:20;7.07;;;2.10;;
47403;SDS011;33157;51.508;4.288;2022-08-01T08:06:21;9.35;;;2.25;;
47403;SDS011;33157;51.508;4.288;2022-08-01T08:11:22;7.97;;;2.37;;
47403;SDS011;33157;51.508;4.288;2022-08-01T08:16:25;6.30;;;2.05;;
47403;SDS011;33157;51.508;4.288;2022-08-01T08:21:26;8.07;;;2.60;;
47403;SDS011;33157;51.508;4.288;2022-08-01T08:26:27;10.03;;;2.83;;
47403;SDS011;33157;51.508;4.288;2022-08-01T08:31:28;7.17;;;2.17;;
47403;SDS011;33157;51.508;4.288;2022-08-01T08:36:28;9.60;;;2.08;;
47403;SDS011;33157;51.508;4.288;2022-08-01T08:41:32;8.93;;;1.55;;
47403;SDS011;33157;51.508;4.288;2022-08-01T08:46:33;4.30;;;1.65;;
47403;SDS011;33157;51.508;4.288;2022-08-01T08:51:35;5.10;;;1.60;;
47403;SDS011;33157;51.508;4.288;2022-08-01T08:56:38;8.32;;;1.85;;
47403;SDS011;33157;51.508;4.288;2022-08-01T09:01:39;5.83;;;1.97;;
47403;SDS011;33157;51.508;4.288;2022-08-01T09:06:40;8.67;;;1.80;;
47403;SDS011;33157;51.508;4.288;2022-08-01T09:11:41;6.10;;;1.93;;
47403;SDS011;33157;51.508;4.288;2022-08-01T09:16:42;6.87;;;2.13;;
47403;SDS011;33157;51.508;4.288;2022-08-01T09:22:00;6.28;;;2.00;;
47403;SDS011;33157;51.508;4.288;2022-08-01T09:27:16;5.43;;;1.65;;
47403;SDS011;33157;51.508;4.288;2022-08-01T09:32:17;12.30;;;2.75;;
47403;SDS011;33157;51.508;4.288;2022-08-01T09:37:18;6.15;;;2.08;;
47403;SDS011;33157;51.508;4.288;2022-08-01T09:42:30;6.78;;;2.03;;
47403;SDS011;33157;51.508;4.288;2022-08-01T09:47:39;5.13;;;1.80;;
47403;SDS011;33157;51.508;4.288;2022-08-01T09:52:39;6.63;;;2.10;;
47403;SDS011;33157;51.508;4.288;2022-08-01T09:57:40;7.50;;;2.17;;
47403;SDS011;33157;51.508;4.288;2022-08-01T10:02:55;7.63;;;1.30;;
47403;SDS011;33157;51.508;4.288;2022-08-01T10:07:59;6.15;;;1.70;;
47403;SDS011;33157;51.508;4.288;2022-08-01T10:13:03;4.93;;;1.60;;
47403;SDS011;33157;51.508;4.288;2022-08-01T10:18:04;5.07;;;1.60;;
47403;SDS011;33157;51.508;4.288;2022-08-01T10:23:07;7.75;;;1.60;;
47403;SDS011;33157;51.508;4.288;2022-08-01T10:28:10;6.90;;;1.90;;
47403;SDS011;33157;51.508;4.288;2022-08-01T10:33:17;4.38;;;1.33;;
47403;SDS011;33157;51.508;4.288;2022-08-01T10:38:17;3.13;;;1.10;;
47403;SDS011;33157;51.508;4.288;2022-08-01T10:43:18;8.13;;;1.50;;
47403;SDS011;33157;51.508;4.288;2022-08-01T10:48:20;3.60;;;1.10;;
47403;SDS011;33157;51.508;4.288;2022-08-01T10:53:25;5.22;;;1.10;;
47403;SDS011;33157;51.508;4.288;2022-08-01T10:58:37;5.10;;;1.42;;
47403;SDS011;33157;51.508;4.288;2022-08-01T11:03:41;4.63;;;1.55;;
47403;SDS011;33157;51.508;4.288;2022-08-01T11:08:42;4.38;;;1.20;;
47403;SDS011;33157;51.508;4.288;2022-08-01T11:18:58;7.25;;;1.60;;
47403;SDS011;33157;51.508;4.288;2022-08-01T11:23:59;8.27;;;2.53;;
47403;SDS011;33157;51.508;4.288;2022-08-01T11:29:13;7.37;;;2.60;;
47403;SDS011;33157;51.508;4.288;2022-08-01T11:34:15;10.63;;;2.90;;
47403;SDS011;33157;51.508;4.288;2022-08-01T11:39:16;8.03;;;2.23;;
47403;SDS011;33157;51.508;4.288;2022-08-01T11:44:19;7.10;;;2.45;;
47403;SDS011;33157;51.508;4.288;2022-08-01T11:49:26;8.68;;;2.25;;
47403;SDS011;33157;51.508;4.288;2022-08-01T11:54:45;10.30;;;2.40;;
47403;SDS011;33157;51.508;4.288;2022-08-01T11:59:54;7.80;;;2.17;;
47403;SDS011;33157;51.508;4.288;2022-08-01T12:10:00;9.10;;;2.27;;
47403;SDS011;33157;51.508;4.288;2022-08-01T12:15:02;7.68;;;2.47;;
47403;SDS011;33157;51.508;4.288;2022-08-01T12:20:06;6.15;;;1.88;;
47403;SDS011;33157;51.508;4.288;2022-08-01T12:25:11;6.13;;;1.95;;
47403;SDS011;33157;51.508;4.288;2022-08-01T12:30:14;6.85;;;2.05;;
47403;SDS011;33157;51.508;4.288;2022-08-01T12:35:18;8.88;;;2.08;;
47403;SDS011;33157;51.508;4.288;2022-08-01T12:40:24;8.60;;;2.35;;
47403;SDS011;33157;51.508;4.288;2022-08-01T12:45:25;3.85;;;1.05;;
47403;SDS011;33157;51.508;4.288;2022-08-01T12:50:28;5.95;;;1.27;;
47403;SDS011;33157;51.508;4.288;2022-08-01T12:55:30;6.50;;;1.20;;
47403;SDS011;33157;51.508;4.288;2022-08-01T13:00:31;5.57;;;1.40;;
47403;SDS011;33157;51.508;4.288;2022-08-01T13:05:41;5.83;;;1.70;;
47403;SDS011;33157;51.508;4.288;2022-08-01T13:15:44;6.63;;;1.60;;
47403;SDS011;33157;51.508;4.288;2022-08-01T13:20:44;4.17;;;1.10;;
47403;SDS011;33157;51.508;4.288;2022-08-01T13:30:57;3.10;;;1.10;;
47403;SDS011;33157;51.508;4.288;2022-08-01T13:36:03;5.68;;;1.20;;
47403;SDS011;33157;51.508;4.288;2022-08-01T13:41:04;5.53;;;1.33;;
47403;SDS011;33157;51.508;4.288;2022-08-01T13:46:04;6.53;;;1.13;;
47403;SDS011;33157;51.508;4.288;2022-08-01T13:51:05;5.37;;;1.10;;
47403;SDS011;33157;51.508;4.288;2022-08-01T13:56:05;3.83;;;1.40;;
47403;SDS011;33157;51.508;4.288;2022-08-01T14:01:06;4.23;;;0.90;;
47403;SDS011;33157;51.508;4.288;2022-08-01T14:06:15;5.03;;;1.38;;
47403;SDS011;33157;51.508;4.288;2022-08-01T14:11:16;6.27;;;1.13;;
47403;SDS011;33157;51.508;4.288;2022-08-01T14:16:20;7.32;;;1.38;;
47403;SDS011;33157;51.508;4.288;2022-08-01T14:21:20;3.10;;;0.90;;
47403;SDS011;33157;51.508;4.288;2022-08-01T14:26:20;3.33;;;1.17;;
47403;SDS011;33157;51.508;4.288;2022-08-01T14:31:21;6.70;;;1.27;;
47403;SDS011;33157;51.508;4.288;2022-08-01T14:36:22;5.70;;;1.50;;
47403;SDS011;33157;51.508;4.288;2022-08-01T14:41:23;3.73;;;1.03;;
47403;SDS011;33157;51.508;4.288;2022-08-01T14:46:23;5.17;;;1.47;;
47403;SDS011;33157;51.508;4.288;2022-08-01T14:51:24;6.23;;;1.63;;
47403;SDS011;33157;51.508;4.288;2022-08-01T14:56:26;6.10;;;1.65;;
47403;SDS011;33157;51.508;4.288;2022-08-01T15:01:27;3.13;;;1.10;;
47403;SDS011;33157;51.508;4.288;2022-08-01T15:06:27;2.60;;;0.90;;
47403;SDS011;33157;51.508;4.288;2022-08-01T15:11:28;9.13;;;1.77;;
47403;SDS011;33157;51.508;4.288;2022-08-01T15:16:28;6.73;;;1.57;;
47403;SDS011;33157;51.508;4.288;2022-08-01T15:21:29;8.13;;;1.50;;
47403;SDS011;33157;51.508;4.288;2022-08-01T15:26:29;3.57;;;1.50;;
47403;SDS011;33157;51.508;4.288;2022-08-01T15:31:30;5.90;;;1.30;;
47403;SDS011;33157;51.508;4.288;2022-08-01T15:36:30;6.20;;;1.50;;
47403;SDS011;33157;51.508;4.288;2022-08-01T15:41:31;4.57;;;1.60;;
47403;SDS011;33157;51.508;4.288;2022-08-01T15:46:31;6.13;;;2.10;;
47403;SDS011;33157;51.508;4.288;2022-08-01T15:51:32;5.77;;;1.43;;
47403;SDS011;33157;51.508;4.288;2022-08-01T15:56:33;3.75;;;1.20;;
47403;SDS011;33157;51.508;4.288;2022-08-01T16:01:33;4.27;;;1.20;;
47403;SDS011;33157;51.508;4.288;2022-08-01T16:06:34;5.73;;;1.37;;
47403;SDS011;33157;51.508;4.288;2022-08-01T16:16:36;5.35;;;1.58;;
47403;SDS011;33157;51.508;4.288;2022-08-01T16:21:37;7.63;;;1.70;;
47403;SDS011;33157;51.508;4.288;2022-08-01T16:26:37;4.90;;;1.60;;
47403;SDS011;33157;51.508;4.288;2022-08-01T16:31:38;6.43;;;1.40;;
47403;SDS011;33157;51.508;4.288;2022-08-01T16:36:38;4.73;;;1.10;;
47403;SDS011;33157;51.508;4.288;2022-08-01T16:41:39;5.30;;;1.53;;
47403;SDS011;33157;51.508;4.288;2022-08-01T16:46:39;4.03;;;1.60;;
47403;SDS011;33157;51.508;4.288;2022-08-01T16:51:39;3.53;;;1.10;;
47403;SDS011;33157;51.508;4.288;2022-08-01T16:56:40;3.17;;;0.97;;
47403;SDS011;33157;51.508;4.288;2022-08-01T17:01:40;7.27;;;1.80;;
47403;SDS011;33157;51.508;4.288;2022-08-01T17:06:41;8.40;;;1.40;;
47403;SDS011;33157;51.508;4.288;2022-08-01T17:11:41;6.30;;;1.40;;
47403;SDS011;33157;51.508;4.288;2022-08-01T17:16:42;5.07;;;1.13;;
47403;SDS011;33157;51.508;4.288;2022-08-01T17:21:42;7.37;;;1.60;;
47403;SDS011;33157;51.508;4.288;2022-08-01T17:26:43;3.67;;;1.47;;
47403;SDS011;33157;51.508;4.288;2022-08-01T17:31:43;9.47;;;1.40;;
47403;SDS011;33157;51.508;4.288;2022-08-01T17:36:44;7.23;;;1.50;;
47403;SDS011;33157;51.508;4.288;2022-08-01T17:41:44;4.20;;;1.27;;
47403;SDS011;33157;51.508;4.288;2022-08-01T17:46:45;7.60;;;1.80;;
47403;SDS011;33157;51.508;4.288;2022-08-01T17:51:45;7.40;;;1.63;;
47403;SDS011;33157;51.508;4.288;2022-08-01T17:56:46;5.47;;;1.40;;
47403;SDS011;33157;51.508;4.288;2022-08-01T18:01:47;4.55;;;1.45;;
47403;SDS011;33157;51.508;4.288;2022-08-01T18:06:47;6.40;;;1.70;;
47403;SDS011;33157;51.508;4.288;2022-08-01T18:11:47;3.88;;;1.55;;
47403;SDS011;33157;51.508;4.288;2022-08-01T18:16:48;4.45;;;1.20;;
47403;SDS011;33157;51.508;4.288;2022-08-01T18:21:49;3.97;;;1.20;;
47403;SDS011;33157;51.508;4.288;2022-08-01T18:26:50;7.03;;;1.47;;
47403;SDS011;33157;51.508;4.288;2022-08-01T18:31:51;4.07;;;1.47;;
47403;SDS011;33157;51.508;4.288;2022-08-01T18:36:54;5.60;;;1.52;;
47403;SDS011;33157;51.508;4.288;2022-08-01T18:41:55;5.15;;;1.55;;
47403;SDS011;33157;51.508;4.288;2022-08-01T18:46:57;6.25;;;1.65;;
47403;SDS011;33157;51.508;4.288;2022-08-01T18:51:57;6.55;;;2.20;;
47403;SDS011;33157;51.508;4.288;2022-08-01T18:56:58;5.40;;;1.50;;
47403;SDS011;33157;51.508;4.288;2022-08-01T19:01:58;4.32;;;1.80;;
47403;SDS011;33157;51.508;4.288;2022-08-01T19:06:59;10.43;;;2.33;;
47403;SDS011;33157;51.508;4.288;2022-08-01T19:11:59;5.82;;;1.77;;
47403;SDS011;33157;51.508;4.288;2022-08-01T19:17:00;4.78;;;2.00;;
47403;SDS011;33157;51.508;4.288;2022-08-01T19:22:01;5.32;;;1.75;;
47403;SDS011;33157;51.508;4.288;2022-08-01T19:27:03;4.95;;;2.20;;
47403;SDS011;33157;51.508;4.288;2022-08-01T19:32:08;5.88;;;1.63;;
47403;SDS011;33157;51.508;4.288;2022-08-01T19:37:11;6.05;;;2.30;;
47403;SDS011;33157;51.508;4.288;2022-08-01T19:42:12;8.63;;;1.90;;
47403;SDS011;33157;51.508;4.288;2022-08-01T19:47:14;5.88;;;1.40;;
47403;SDS011;33157;51.508;4.288;2022-08-01T19:52:16;7.65;;;1.90;;
47403;SDS011;33157;51.508;4.288;2022-08-01T19:57:18;5.57;;;2.00;;
47403;SDS011;33157;51.508;4.288;2022-08-01T20:02:20;3.00;;;1.40;;
47403;SDS011;33157;51.508;4.288;2022-08-01T20:07:22;5.67;;;1.43;;
47403;SDS011;33157;51.508;4.288;2022-08-01T20:12:22;4.88;;;1.75;;
47403;SDS011;33157;51.508;4.288;2022-08-01T20:17:23;4.53;;;1.50;;
47403;SDS011;33157;51.508;4.288;2022-08-01T20:22:24;3.58;;;1.45;;
47403;SDS011;33157;51.508;4.288;2022-08-01T20:27:29;5.57;;;1.30;;
47403;SDS011;33157;51.508;4.288;2022-08-01T20:32:31;3.53;;;1.40;;
47403;SDS011;33157;51.508;4.288;2022-08-01T20:42:34;4.60;;;1.58;;
47403;SDS011;33157;51.508;4.288;2022-08-01T20:52:41;6.97;;;2.13;;
47403;SDS011;33157;51.508;4.288;2022-08-01T20:57:47;8.43;;;1.38;;
47403;SDS011;33157;51.508;4.288;2022-08-01T21:02:53;5.50;;;1.70;;
47403;SDS011;33157;51.508;4.288;2022-08-01T21:08:21;6.70;;;2.15;;
47403;SDS011;33157;51.508;4.288;2022-08-01T21:13:27;5.55;;;2.13;;
47403;SDS011;33157;51.508;4.288;2022-08-01T21:23:59;5.25;;;1.63;;
47403;SDS011;33157;51.508;4.288;2022-08-01T21:29:08;5.03;;;1.45;;
47403;SDS011;33157;51.508;4.288;2022-08-01T21:34:09;3.93;;;1.20;;
47403;SDS011;33157;51.508;4.288;2022-08-01T21:39:13;5.78;;;1.25;;
47403;SDS011;33157;51.508;4.288;2022-08-01T21:44:14;5.03;;;1.20;;
47403;SDS011;33157;51.508;4.288;2022-08-01T21:49:15;5.82;;;1.65;;
47403;SDS011;33157;51.508;4.288;2022-08-01T21:54:30;10.05;;;1.23;;
47403;SDS011;33157;51.508;4.288;2022-08-01T22:05:14;5.00;;;1.60;;
47403;SDS011;33157;51.508;4.288;2022-08-01T22:10:16;6.50;;;1.50;;
47403;SDS011;33157;51.508;4.288;2022-08-01T22:15:18;6.20;;;1.48;;
47403;SDS011;33157;51.508;4.288;2022-08-01T22:20:23;4.57;;;1.53;;
47403;SDS011;33157;51.508;4.288;2022-08-01T22:25:25;4.30;;;1.73;;
47403;SDS011;33157;51.508;4.288;2022-08-01T22:30:28;4.20;;;1.23;;
47403;SDS011;33157;51.508;4.288;2022-08-01T22:35:29;3.45;;;1.30;;
47403;SDS011;33157;51.508;4.288;2022-08-01T22:40:31;9.35;;;1.60;;
47403;SDS011;33157;51.508;4.288;2022-08-01T22:45:39;4.10;;;1.23;;
47403;SDS011;33157;51.508;4.288;2022-08-01T22:50:44;4.80;;;1.35;;
47403;SDS011;33157;51.508;4.288;2022-08-01T22:55:52;5.25;;;1.00;;
47403;SDS011;33157;51.508;4.288;2022-08-01T23:00:53;3.25;;;0.80;;
47403;SDS011;33157;51.508;4.288;2022-08-01T23:05:57;3.33;;;1.20;;
47403;SDS011;33157;51.508;4.288;2022-08-01T23:11:06;5.57;;;1.13;;
47403;SDS011;33157;51.508;4.288;2022-08-01T23:16:06;3.13;;;1.00;;
47403;SDS011;33157;51.508;4.288;2022-08-01T23:21:07;4.03;;;1.08;;
47403;SDS011;33157;51.508;4.288;2022-08-01T23:26:07;5.00;;;1.75;;
47403;SDS011;33157;51.508;4.288;2022-08-01T23:31:09;2.63;;;1.15;;
47403;SDS011;33157;51.508;4.288;2022-08-01T23:36:10;4.93;;;1.13;;
47403;SDS011;33157;51.508;4.288;2022-08-01T23:41:11;5.55;;;1.38;;
47403;SDS011;33157;51.508;4.288;2022-08-01T23:46:14;3.17;;;1.23;;
47403;SDS011;33157;51.508;4.288;2022-08-01T23:51:14;4.90;;;1.53;;
47403;SDS011;33157;51.508;4.288;2022-08-01T23:56:15;4.82;;;1.00;;
